Time;durP1;ratioP1;P1;durP2;ratioP2;P2;SDS_P1;SDS_P2;PMS_P1;PMS_P2;Temp;Humidity;BMP_temperature;BMP_pressure;BME280_temperature;BME280_humidity;BME280_pressure;Samples;Min_cycle;Max_cycle;Signal;HPM_P1;HPM_P2
2022/03/02 00:02:07;;;;;;;8.35;6.18;;;-2.90;99.90;;;;;;4937571;28;20784;-38
2022/03/02 00:04:32;;;;;;;10.25;6.15;;;-3.00;99.90;;;;;;4945090;28;20118;-36
2022/03/02 00:06:58;;;;;;;5.05;4.63;;;-3.00;99.90;;;;;;4945694;28;21211;-38
2022/03/02 00:09:24;;;;;;;6.70;5.85;;;-3.00;99.90;;;;;;4944710;28;20039;-38
2022/03/02 00:11:50;;;;;;;7.43;5.25;;;-3.00;99.90;;;;;;4946120;28;20511;-36
2022/03/02 00:14:15;;;;;;;5.97;5.43;;;-3.10;99.90;;;;;;4947465;28;20050;-39
2022/03/02 00:16:41;;;;;;;11.75;5.68;;;-3.10;99.90;;;;;;4941119;28;20031;-38
2022/03/02 00:19:08;;;;;;;17.10;7.32;;;-3.10;99.90;;;;;;4939530;28;20123;-39
2022/03/02 00:21:34;;;;;;;9.80;5.25;;;-3.10;99.90;;;;;;4942064;28;20046;-36
2022/03/02 00:24:03;;;;;;;7.18;5.55;;;-3.00;99.90;;;;;;4936047;28;20408;-38
2022/03/02 00:26:32;;;;;;;5.95;5.07;;;-3.00;99.90;;;;;;4973426;28;20063;-35
2022/03/02 00:28:58;;;;;;;7.57;5.57;;;-3.00;99.90;;;;;;4943481;28;20020;-37
2022/03/02 00:31:24;;;;;;;8.63;5.70;;;-3.00;99.90;;;;;;4946677;28;20046;-38
2022/03/02 00:33:50;;;;;;;8.45;6.40;;;-3.00;99.90;;;;;;4939809;28;20732;-39
2022/03/02 00:36:16;;;;;;;9.82;6.32;;;-3.20;99.90;;;;;;4945017;28;20039;-38
2022/03/02 00:38:42;;;;;;;7.47;6.07;;;-3.30;99.90;;;;;;4942329;28;20091;-39
2022/03/02 00:41:08;;;;;;;7.70;5.72;;;-3.20;99.90;;;;;;4943878;28;20034;-38
2022/03/02 00:43:34;;;;;;;8.07;6.38;;;-3.20;99.90;;;;;;4942876;28;20039;-38
2022/03/02 00:45:59;;;;;;;8.75;5.75;;;-3.20;99.90;;;;;;4942083;28;20141;-39
2022/03/02 00:48:25;;;;;;;7.05;4.97;;;-3.20;99.90;;;;;;4940992;28;20031;-38
2022/03/02 00:50:52;;;;;;;8.43;5.40;;;-3.10;99.90;;;;;;4947000;28;20055;-39
2022/03/02 00:53:18;;;;;;;6.43;4.55;;;-3.50;99.90;;;;;;4938653;28;20408;-37
2022/03/02 00:55:43;;;;;;;8.43;4.18;;;-3.40;99.90;;;;;;4952327;28;20035;-39
2022/03/02 00:58:09;;;;;;;6.25;4.55;;;-3.50;99.90;;;;;;4948609;28;20113;-36
2022/03/02 01:00:35;;;;;;;4.63;4.18;;;-3.50;99.90;;;;;;4945003;28;20038;-39
2022/03/02 01:03:01;;;;;;;7.50;5.68;;;-3.60;99.90;;;;;;4944046;28;20039;-39
2022/03/02 01:05:26;;;;;;;5.07;4.10;;;-3.60;99.90;;;;;;4947985;28;20039;-38
2022/03/02 01:07:52;;;;;;;7.30;5.03;;;-3.70;99.90;;;;;;4949166;28;20039;-38
2022/03/02 01:10:18;;;;;;;8.65;5.53;;;-3.80;99.90;;;;;;4953559;28;20023;-37
2022/03/02 01:12:44;;;;;;;6.63;4.90;;;-3.70;99.90;;;;;;4946877;28;20035;-39
2022/03/02 01:15:11;;;;;;;5.38;4.85;;;-3.70;99.90;;;;;;4948520;28;20029;-37
2022/03/02 01:17:37;;;;;;;9.52;5.50;;;-3.60;99.90;;;;;;4954524;28;20085;-38
2022/03/02 01:20:08;;;;;;;8.77;5.32;;;-3.50;99.90;;;;;;4945410;28;20117;-39
2022/03/02 01:22:34;;;;;;;5.30;4.57;;;-3.50;99.90;;;;;;4948545;28;20035;-39
2022/03/02 01:25:00;;;;;;;7.13;4.57;;;-3.60;99.90;;;;;;4947489;28;20043;-38
2022/03/02 01:27:26;;;;;;;8.93;6.43;;;-3.80;99.90;;;;;;4951424;28;20078;-39
2022/03/02 01:29:52;;;;;;;5.15;4.55;;;-3.90;99.90;;;;;;4945585;28;20047;-37
2022/03/02 01:32:19;;;;;;;11.13;4.63;;;-4.00;99.90;;;;;;4949577;28;20547;-39
2022/03/02 01:34:45;;;;;;;27.27;8.95;;;-3.90;99.90;;;;;;4948501;28;20035;-39
2022/03/02 01:37:11;;;;;;;9.38;6.20;;;-4.00;99.90;;;;;;4954082;28;20041;-37
2022/03/02 01:39:36;;;;;;;8.35;5.95;;;-4.10;99.90;;;;;;4948609;28;20031;-37
2022/03/02 01:42:05;;;;;;;8.63;5.45;;;-4.00;99.90;;;;;;4950327;28;20054;-39
2022/03/02 01:44:31;;;;;;;;;;;-3.90;99.90;;;;;;4952100;28;20097;-36
2022/03/02 01:46:57;;;;;;;6.78;5.05;;;-4.00;99.90;;;;;;4944962;28;19918;-38
2022/03/02 01:49:23;;;;;;;6.35;4.30;;;-3.90;99.90;;;;;;4947885;28;20087;-39
2022/03/02 01:51:49;;;;;;;8.93;5.32;;;-3.90;99.90;;;;;;4947563;28;20074;-38
2022/03/02 01:54:14;;;;;;;7.97;5.07;;;-3.90;99.90;;;;;;4941482;28;20082;-38
2022/03/02 01:56:40;;;;;;;4.30;4.00;;;-3.80;99.90;;;;;;4943219;28;20089;-37
2022/03/02 01:59:06;;;;;;;10.82;5.85;;;-3.80;99.90;;;;;;4945521;28;20089;-38
2022/03/02 02:01:32;;;;;;;6.90;4.13;;;-3.70;99.90;;;;;;4946983;28;20039;-37
2022/03/02 02:03:59;;;;;;;4.47;3.40;;;-3.70;99.90;;;;;;4941687;28;20074;-39
2022/03/02 02:06:24;;;;;;;4.43;3.97;;;-3.70;99.90;;;;;;4947204;28;20480;-36
2022/03/02 02:08:52;;;;;;;6.00;4.63;;;-3.70;99.90;;;;;;4970006;28;20034;-38
2022/03/02 02:11:18;;;;;;;4.78;4.18;;;-3.70;99.90;;;;;;4947090;28;20027;-39
2022/03/02 02:13:44;;;;;;;4.53;4.13;;;-3.90;99.90;;;;;;4944779;28;20035;-38
2022/03/02 02:16:10;;;;;;;5.53;4.47;;;-3.80;99.90;;;;;;4944139;28;20468;-39
2022/03/02 02:18:35;;;;;;;10.48;6.15;;;-3.80;99.90;;;;;;4943929;28;20038;-37
2022/03/02 02:21:08;;;;;;;7.30;5.10;;;-4.00;99.90;;;;;;4942010;28;20146;-36
2022/03/02 02:23:35;;;;;;;9.07;6.38;;;-4.00;99.90;;;;;;4946418;28;20900;-38
2022/03/02 02:26:01;;;;;;;9.25;4.75;;;-3.90;99.90;;;;;;4946400;28;20028;-36
2022/03/02 02:28:28;;;;;;;7.55;5.18;;;-4.20;99.90;;;;;;4947280;28;20039;-37
2022/03/02 02:30:57;;;;;;;6.03;4.28;;;-4.30;99.90;;;;;;4943964;28;20081;-37
2022/03/02 02:33:24;;;;;;;4.53;4.13;;;-4.30;99.90;;;;;;4946259;28;20130;-39
2022/03/02 02:35:50;;;;;;;5.72;4.97;;;-4.20;99.90;;;;;;4944885;28;20534;-37
2022/03/02 02:38:17;;;;;;;10.10;5.00;;;-4.20;99.90;;;;;;4943404;28;20035;-38
2022/03/02 02:40:43;;;;;;;8.23;4.15;;;-4.10;99.90;;;;;;4949110;28;20077;-39
2022/03/02 02:43:10;;;;;;;5.40;3.75;;;-4.00;99.90;;;;;;4942823;28;20031;-36
2022/03/02 02:45:35;;;;;;;4.55;4.07;;;-3.90;99.90;;;;;;4942570;28;20039;-35
2022/03/02 02:48:02;;;;;;;9.02;5.22;;;-3.90;99.90;;;;;;4948937;28;20027;-39
2022/03/02 02:50:31;;;;;;;5.13;4.68;;;-3.90;99.90;;;;;;4939971;28;20028;-37
2022/03/02 02:52:59;;;;;;;14.85;7.22;;;-4.00;99.90;;;;;;4949799;28;20099;-38
2022/03/02 02:55:26;;;;;;;8.85;5.82;;;-4.20;99.90;;;;;;4939407;28;20037;-39
2022/03/02 02:57:53;;;;;;;7.45;5.22;;;-4.30;99.90;;;;;;4942080;28;20395;-37
2022/03/02 03:00:21;;;;;;;8.15;6.82;;;-4.40;99.90;;;;;;4942680;28;20042;-39
2022/03/02 03:02:49;;;;;;;4.85;4.40;;;-4.30;99.90;;;;;;4940306;28;20035;-38
2022/03/02 03:05:17;;;;;;;5.95;3.45;;;-4.30;99.90;;;;;;4939289;28;20043;-38
2022/03/02 03:07:45;;;;;;;3.03;2.85;;;-4.30;99.90;;;;;;4946396;28;20039;-38
2022/03/02 03:10:11;;;;;;;7.70;6.03;;;-4.50;99.90;;;;;;4949767;28;20027;-39
2022/03/02 03:12:38;;;;;;;6.90;6.00;;;-4.60;99.90;;;;;;4949961;28;20028;-39
2022/03/02 03:15:06;;;;;;;6.32;5.60;;;-4.60;99.90;;;;;;4940613;28;20035;-39
2022/03/02 03:17:32;;;;;;;7.95;5.70;;;-4.50;99.90;;;;;;4948971;28;20046;-36
2022/03/02 03:19:58;;;;;;;9.18;5.97;;;-4.40;99.90;;;;;;4949624;28;20106;-39
2022/03/02 03:22:24;;;;;;;7.85;5.57;;;-4.40;99.90;;;;;;4947155;28;20559;-37
2022/03/02 03:24:50;;;;;;;9.30;4.03;;;-4.30;99.90;;;;;;4947340;28;20049;-37
2022/03/02 03:27:16;;;;;;;10.55;5.28;;;-4.30;99.90;;;;;;4947511;28;20035;-39
2022/03/02 03:29:42;;;;;;;10.52;6.90;;;-4.20;99.90;;;;;;4952236;28;20015;-37
2022/03/02 03:32:08;;;;;;;11.68;7.68;;;-4.20;99.90;;;;;;4947691;28;20039;-39
2022/03/02 03:34:33;;;;;;;4.85;4.28;;;-4.30;99.90;;;;;;4945266;28;20676;-37
2022/03/02 03:36:59;;;;;;;8.38;4.25;;;-4.30;99.90;;;;;;4947119;28;20039;-36
2022/03/02 03:39:26;;;;;;;6.22;4.97;;;-4.20;99.90;;;;;;4946382;28;20403;-39
2022/03/02 03:41:55;;;;;;;9.00;4.32;;;-4.10;99.90;;;;;;4944856;28;20038;-39
2022/03/02 03:44:24;;;;;;;9.85;6.50;;;-4.10;99.90;;;;;;4944150;28;20031;-39
2022/03/02 03:46:49;;;;;;;;;;;-4.10;99.90;;;;;;4942071;28;20106;-38
2022/03/02 03:49:15;;;;;;;3.92;3.63;;;-4.20;99.90;;;;;;4944252;28;19919;-37
2022/03/02 03:51:41;;;;;;;5.80;5.22;;;-4.40;99.90;;;;;;4944679;28;20067;-38
2022/03/02 03:54:08;;;;;;;6.75;6.20;;;-4.40;99.90;;;;;;4943790;28;20560;-38
2022/03/02 03:56:34;;;;;;;8.23;5.50;;;-4.50;99.90;;;;;;4943889;28;20070;-39
2022/03/02 03:58:59;;;;;;;10.82;6.13;;;-4.50;99.90;;;;;;4942018;28;20039;-36
2022/03/02 04:01:25;;;;;;;17.52;8.85;;;-4.50;99.90;;;;;;4948716;28;20037;-38
2022/03/02 04:03:51;;;;;;;35.10;14.57;;;-4.50;99.90;;;;;;4953019;28;20119;-39
2022/03/02 04:06:17;;;;;;;43.97;20.23;;;-4.40;99.90;;;;;;4941239;28;20098;-38
2022/03/02 04:08:43;;;;;;;46.20;24.05;;;-4.40;99.90;;;;;;4945219;28;20580;-38
2022/03/02 04:11:09;;;;;;;57.63;23.92;;;-4.30;99.90;;;;;;4949883;28;20023;-37
2022/03/02 04:13:35;;;;;;;46.65;20.05;;;-4.30;99.90;;;;;;4950229;28;20050;-39
2022/03/02 04:16:00;;;;;;;31.95;12.30;;;-4.30;99.90;;;;;;4939672;28;20031;-39
2022/03/02 04:18:26;;;;;;;17.70;10.82;;;-4.30;99.90;;;;;;4948375;28;20031;-35
2022/03/02 04:20:54;;;;;;;17.92;9.18;;;-4.20;99.90;;;;;;4949443;28;20043;-35
2022/03/02 04:23:22;;;;;;;18.85;8.07;;;-4.20;99.90;;;;;;4952467;28;20597;-38
2022/03/02 04:25:48;;;;;;;82.97;36.58;;;-4.30;99.90;;;;;;4944664;28;20039;-37
2022/03/02 04:28:14;;;;;;;94.40;41.53;;;-4.30;99.90;;;;;;4949006;28;21627;-39
2022/03/02 04:30:39;;;;;;;52.65;17.95;;;-4.40;99.90;;;;;;4948194;28;20031;-39
2022/03/02 04:33:05;;;;;;;11.70;6.30;;;-4.30;99.90;;;;;;4951138;28;20027;-36
2022/03/02 04:35:31;;;;;;;5.38;4.93;;;-4.30;99.90;;;;;;4945198;28;20094;-38
2022/03/02 04:37:58;;;;;;;8.60;5.45;;;-4.30;99.90;;;;;;4943911;28;20141;-39
2022/03/02 04:40:23;;;;;;;3.83;3.45;;;-4.50;99.90;;;;;;4950549;28;20464;-39
2022/03/02 04:42:49;;;;;;;11.73;6.25;;;-4.50;99.90;;;;;;4951710;28;20081;-39
2022/03/02 04:45:15;;;;;;;2.58;2.45;;;-4.60;99.90;;;;;;4942620;28;20394;-37
2022/03/02 04:47:41;;;;;;;3.33;3.10;;;-4.70;99.90;;;;;;4942415;28;20070;-37
2022/03/02 04:50:08;;;;;;;3.25;3.05;;;-4.90;99.90;;;;;;4942882;28;20058;-36
2022/03/02 04:52:34;;;;;;;4.10;2.92;;;-4.90;99.90;;;;;;4944868;28;20055;-39
2022/03/02 04:55:05;;;;;;;5.95;5.20;;;-4.90;99.90;;;;;;4940688;28;20042;-38
2022/03/02 04:57:52;;;;;;;6.32;4.28;;;-4.90;99.90;;;;;;4946067;28;20449;-38
2022/03/02 05:00:21;;;;;;;9.70;7.50;;;-5.10;99.90;;;;;;4940942;28;20051;-37
2022/03/02 05:02:47;;;;;;;10.77;8.82;;;-4.90;99.90;;;;;;4943132;28;20059;-38
2022/03/02 05:05:17;;;;;;;13.63;8.90;;;-4.90;99.90;;;;;;4941398;28;20034;-37
2022/03/02 05:07:44;;;;;;;16.02;10.43;;;-4.70;99.90;;;;;;4944527;28;20031;-37
2022/03/02 05:10:11;;;;;;;24.02;18.00;;;-4.70;99.90;;;;;;4940779;28;20031;-39
2022/03/02 05:12:37;;;;;;;22.45;13.02;;;-4.60;99.90;;;;;;4945993;28;20512;-38
2022/03/02 05:15:04;;;;;;;18.88;13.00;;;-4.60;99.90;;;;;;4945768;28;20019;-38
2022/03/02 05:17:30;;;;;;;12.00;8.73;;;-4.50;99.90;;;;;;4950780;28;20046;-36
2022/03/02 05:19:55;;;;;;;10.63;6.18;;;-4.50;99.90;;;;;;4945569;28;20027;-38
2022/03/02 05:22:21;;;;;;;5.50;5.00;;;-4.60;99.90;;;;;;4941743;28;20440;-36
2022/03/02 05:24:47;;;;;;;9.45;5.05;;;-4.70;99.90;;;;;;4946897;28;20027;-37
2022/03/02 05:27:12;;;;;;;3.38;3.17;;;-4.70;99.90;;;;;;4944451;28;20038;-38
2022/03/02 05:29:38;;;;;;;5.80;4.75;;;-4.70;99.90;;;;;;4974366;28;20031;-38
2022/03/02 05:32:05;;;;;;;6.68;4.22;;;-4.70;99.90;;;;;;4947736;28;20050;-38
2022/03/02 05:34:31;;;;;;;6.53;4.68;;;-4.60;99.90;;;;;;4940842;28;20420;-38
2022/03/02 05:36:56;;;;;;;7.13;4.30;;;-4.60;99.90;;;;;;4938998;28;20023;-39
2022/03/02 05:39:25;;;;;;;5.65;4.82;;;-4.60;99.90;;;;;;4944124;28;20554;-36
2022/03/02 05:41:51;;;;;;;6.78;5.03;;;-4.60;99.90;;;;;;4943624;28;20454;-38
2022/03/02 05:44:17;;;;;;;9.77;7.55;;;-4.50;99.90;;;;;;4942480;28;20035;-39
2022/03/02 05:46:43;;;;;;;17.85;13.63;;;-4.50;99.90;;;;;;4939866;28;21052;-37
2022/03/02 05:49:09;;;;;;;22.08;12.48;;;-4.60;99.90;;;;;;4942638;28;20106;-38
2022/03/02 05:51:36;;;;;;;19.13;11.27;;;-4.70;99.90;;;;;;4945878;28;20053;-36
2022/03/02 05:54:03;;;;;;;10.43;6.72;;;-4.60;99.90;;;;;;4941565;28;20035;-39
2022/03/02 05:56:30;;;;;;;12.68;6.45;;;-4.70;99.90;;;;;;4942376;28;20062;-38
2022/03/02 05:58:55;;;;;;;7.40;4.50;;;-4.80;99.90;;;;;;4941251;28;20031;-37
2022/03/02 06:01:21;;;;;;;8.10;5.20;;;-4.80;99.90;;;;;;4949878;28;20047;-37
2022/03/02 06:03:49;;;;;;;4.95;3.75;;;-4.80;99.90;;;;;;4944669;28;20547;-38
2022/03/02 06:06:15;;;;;;;8.10;4.63;;;-4.80;99.90;;;;;;4944945;28;20089;-37
2022/03/02 06:08:40;;;;;;;6.55;4.47;;;-4.90;99.90;;;;;;4945696;28;20423;-39
2022/03/02 06:11:06;;;;;;;8.20;5.60;;;-4.80;99.90;;;;;;4943508;28;20098;-38
2022/03/02 06:13:33;;;;;;;10.52;7.95;;;-4.80;99.90;;;;;;4943804;28;20031;-39
2022/03/02 06:15:58;;;;;;;8.77;6.32;;;-4.90;99.90;;;;;;4950029;28;20495;-35
2022/03/02 06:18:25;;;;;;;8.73;5.70;;;-4.80;99.90;;;;;;4946444;28;20023;-37
2022/03/02 06:20:52;;;;;;;4.38;3.78;;;-4.70;99.90;;;;;;4939298;28;20503;-39
2022/03/02 06:23:19;;;;;;;3.58;3.13;;;-4.60;99.90;;;;;;4949366;28;20035;-36
2022/03/02 06:25:45;;;;;;;7.40;5.25;;;-4.60;99.90;;;;;;4945591;28;20082;-38
2022/03/02 06:28:11;;;;;;;6.43;4.30;;;-4.50;99.90;;;;;;4943246;28;20059;-37
2022/03/02 06:30:36;;;;;;;6.43;4.75;;;-4.40;99.90;;;;;;4946869;28;20102;-38
2022/03/02 06:33:02;;;;;;;36.50;15.98;;;-4.50;99.90;;;;;;4948732;28;20041;-39
2022/03/02 06:35:28;;;;;;;23.92;10.27;;;-4.50;99.90;;;;;;4942700;28;20030;-36
2022/03/02 06:37:54;;;;;;;23.42;8.50;;;-4.40;99.90;;;;;;4945367;28;20098;-39
2022/03/02 06:40:20;;;;;;;20.73;9.68;;;-4.30;99.90;;;;;;4944908;28;20512;-37
2022/03/02 06:43:06;;;;;;;12.20;8.85;;;-4.20;99.90;;;;;;4950527;28;20031;-39
2022/03/02 06:45:48;;;;;;;6.45;5.22;;;-4.20;99.90;;;;;;4950664;28;20042;-38
2022/03/02 06:48:20;;;;;;;7.72;6.32;;;-4.10;99.90;;;;;;4943560;28;20034;-36
2022/03/02 06:50:49;;;;;;;9.80;5.38;;;-3.90;99.90;;;;;;4951328;28;20053;-39
2022/03/02 06:53:15;;;;;;;16.48;5.07;;;-3.90;99.90;;;;;;4941984;28;20110;-39
2022/03/02 06:55:43;;;;;;;9.80;6.22;;;-4.00;99.90;;;;;;4943632;28;20544;-39
2022/03/02 06:58:11;;;;;;;7.57;6.32;;;-4.00;99.90;;;;;;4939466;28;20050;-38
2022/03/02 07:00:38;;;;;;;5.82;3.90;;;-3.90;99.90;;;;;;4933815;28;20180;-37
2022/03/02 07:03:07;;;;;;;6.82;5.93;;;-3.90;99.90;;;;;;4939025;28;20039;-39
2022/03/02 07:05:33;;;;;;;11.40;9.00;;;-3.80;99.90;;;;;;4936259;28;20504;-38
2022/03/02 07:08:00;;;;;;;8.80;5.93;;;-3.70;99.90;;;;;;4945160;28;20065;-36
2022/03/02 07:10:27;;;;;;;11.90;7.05;;;-3.70;99.90;;;;;;4943443;28;20070;-39
2022/03/02 07:12:53;;;;;;;10.90;6.20;;;-3.60;99.90;;;;;;4948419;28;20035;-39
2022/03/02 07:15:19;;;;;;;12.65;4.88;;;-3.60;99.90;;;;;;4949608;28;20030;-38
2022/03/02 07:17:45;;;;;;;5.90;5.25;;;-3.50;99.90;;;;;;4946509;28;20027;-39
2022/03/02 07:20:12;;;;;;;7.88;6.05;;;-3.50;99.90;;;;;;4942939;28;20032;-38
2022/03/02 07:22:43;;;;;;;11.95;5.13;;;-3.60;99.90;;;;;;4947890;28;20086;-38
2022/03/02 07:25:33;;;;;;;9.68;5.93;;;-3.60;99.90;;;;;;4940655;28;20583;-36
2022/03/02 07:28:01;;;;;;;14.35;7.00;;;-3.50;99.90;;;;;;4946824;28;20031;-37
2022/03/02 07:30:28;;;;;;;13.68;6.75;;;-3.50;99.90;;;;;;4938514;28;20389;-37
2022/03/02 07:33:01;;;;;;;9.55;5.45;;;-3.40;99.90;;;;;;4937529;28;20030;-39
2022/03/02 07:35:31;;;;;;;8.35;5.70;;;-3.20;99.90;;;;;;4940456;28;20126;-37
2022/03/02 07:37:58;;;;;;;7.53;6.32;;;-3.10;99.90;;;;;;4951161;28;20089;-36
2022/03/02 07:40:24;;;;;;;10.82;6.63;;;-3.00;99.90;;;;;;4951424;28;20039;-39
2022/03/02 07:42:50;;;;;;;14.73;7.90;;;-3.00;99.90;;;;;;4950763;28;20115;-37
2022/03/02 07:45:17;;;;;;;12.60;7.35;;;-3.00;99.90;;;;;;4949786;28;20027;-37
2022/03/02 07:47:43;;;;;;;11.38;7.35;;;-2.80;99.90;;;;;;4953063;28;20651;-39
2022/03/02 07:50:11;;;;;;;11.90;7.22;;;-2.80;99.90;;;;;;4952313;28;20122;-39
2022/03/02 07:52:37;;;;;;;9.18;6.57;;;-2.70;99.90;;;;;;4912887;28;1173520;-39
2022/03/02 07:55:09;;;;;;;9.43;5.47;;;-2.60;99.90;;;;;;4947289;28;20041;-39
2022/03/02 07:57:37;;;;;;;10.57;7.20;;;-2.50;99.90;;;;;;4956754;28;20026;-39
2022/03/02 08:00:04;;;;;;;12.40;7.97;;;-2.40;99.90;;;;;;4952212;28;20039;-35
2022/03/02 08:02:31;;;;;;;8.23;5.20;;;-2.40;99.90;;;;;;4948358;28;21764;-39
2022/03/02 08:04:57;;;;;;;9.10;6.75;;;-2.20;99.90;;;;;;4941159;28;20485;-37
2022/03/02 08:07:23;;;;;;;17.15;7.30;;;-2.20;99.90;;;;;;4948828;28;20039;-39
2022/03/02 08:09:52;;;;;;;9.23;6.68;;;-2.10;99.90;;;;;;4944734;28;20038;-37
2022/03/02 08:12:26;;;;;;;12.50;6.78;;;-2.10;99.90;;;;;;4943148;28;20034;-39
2022/03/02 08:14:53;;;;;;;11.45;7.70;;;-2.00;99.90;;;;;;4938574;28;20027;-35
2022/03/02 08:17:20;;;;;;;18.00;8.52;;;-1.90;99.90;;;;;;4942492;28;20038;-37
2022/03/02 08:19:49;;;;;;;11.55;7.50;;;-1.90;99.90;;;;;;4950673;28;20097;-38
2022/03/02 08:22:18;;;;;;;13.65;7.38;;;-1.80;99.90;;;;;;4947797;28;20126;-38
2022/03/02 08:25:07;;;;;;;7.50;6.50;;;-1.70;99.90;;;;;;4942607;28;20039;-39
2022/03/02 08:27:33;;;;;;;9.40;7.45;;;-1.50;99.90;;;;;;4946254;28;20031;-37
2022/03/02 08:30:01;;;;;;;16.73;8.80;;;-1.40;99.90;;;;;;4941825;28;20027;-39
2022/03/02 08:32:32;;;;;;;16.42;9.27;;;-1.30;99.90;;;;;;4942347;28;20131;-39
2022/03/02 08:34:59;;;;;;;7.78;6.15;;;-1.20;99.90;;;;;;4944431;28;20558;-36
2022/03/02 08:37:26;;;;;;;8.38;6.07;;;-1.10;99.90;;;;;;4944430;28;20404;-39
2022/03/02 08:39:52;;;;;;;12.35;7.05;;;-1.10;99.90;;;;;;4944019;28;20051;-39
2022/03/02 08:42:17;;;;;;;9.30;6.80;;;-1.00;99.90;;;;;;4955210;28;20038;-39
2022/03/02 08:44:46;;;;;;;9.07;5.88;;;-0.90;99.90;;;;;;4950249;28;20035;-39
2022/03/02 08:47:13;;;;;;;11.52;6.85;;;-0.70;99.90;;;;;;4953142;28;20143;-38
2022/03/02 08:49:39;;;;;;;11.70;7.95;;;-0.60;99.90;;;;;;4958386;28;20020;-37
2022/03/02 08:52:05;;;;;;;10.32;6.70;;;-0.40;99.90;;;;;;4953218;28;20043;-36
2022/03/02 08:54:47;;;;;;;9.23;6.47;;;-0.30;99.90;;;;;;4951294;28;20023;-37
2022/03/02 08:57:13;;;;;;;11.45;7.40;;;-0.30;99.90;;;;;;4947784;28;20090;-38
2022/03/02 08:59:41;;;;;;;12.02;7.57;;;-0.20;99.90;;;;;;4946820;28;20035;-38
2022/03/02 09:02:07;;;;;;;17.50;9.48;;;-0.10;99.90;;;;;;4939925;28;20039;-38
2022/03/02 09:04:36;;;;;;;14.32;8.57;;;0.00;99.90;;;;;;4947436;28;20034;-38
2022/03/02 09:07:03;;;;;;;14.25;9.13;;;0.20;99.90;;;;;;4941541;28;20067;-38
2022/03/02 09:09:29;;;;;;;11.50;8.38;;;0.30;99.90;;;;;;4940704;28;20484;-35
2022/03/02 09:11:55;;;;;;;13.90;9.63;;;0.40;99.90;;;;;;4942128;28;21836;-37
2022/03/02 09:14:22;;;;;;;12.73;7.93;;;0.50;99.90;;;;;;4940752;28;20031;-35
2022/03/02 09:16:48;;;;;;;12.65;8.32;;;0.50;99.90;;;;;;4937066;28;20023;-38
2022/03/02 09:19:14;;;;;;;12.52;7.82;;;0.60;99.90;;;;;;4935805;28;20035;-38
2022/03/02 09:21:41;;;;;;;14.98;9.38;;;0.70;99.90;;;;;;4940729;28;20027;-35
2022/03/02 09:24:09;;;;;;;12.70;7.97;;;0.90;99.90;;;;;;4948496;28;20374;-38
2022/03/02 09:26:38;;;;;;;13.50;8.45;;;1.00;99.90;;;;;;4949868;28;20531;-37
2022/03/02 09:29:05;;;;;;;15.43;9.02;;;1.20;99.90;;;;;;4943185;28;20058;-36
2022/03/02 09:31:33;;;;;;;15.52;8.25;;;1.30;99.90;;;;;;4948357;28;20396;-35
2022/03/02 09:34:05;;;;;;;13.20;8.30;;;1.40;99.90;;;;;;4943934;28;20111;-35
2022/03/02 09:36:37;;;;;;;14.57;9.10;;;1.50;99.90;;;;;;4942658;28;20070;-35
2022/03/02 09:39:09;;;;;;;15.73;8.75;;;1.60;99.90;;;;;;4944268;28;20039;-37
2022/03/02 09:41:35;;;;;;;12.93;8.32;;;1.70;99.90;;;;;;4942793;28;20453;-35
2022/03/02 09:44:04;;;;;;;14.27;7.97;;;1.80;99.90;;;;;;4947979;28;20118;-38
2022/03/02 09:46:36;;;;;;;15.35;8.60;;;1.90;99.90;;;;;;4946404;28;20032;-35
2022/03/02 09:49:11;;;;;;;18.65;11.50;;;2.10;99.90;;;;;;4940548;28;20039;-36
2022/03/02 09:51:42;;;;;;;18.55;9.73;;;2.10;99.90;;;;;;4961099;28;20066;-38
2022/03/02 09:54:08;;;;;;;17.17;11.00;;;2.10;99.90;;;;;;4943206;28;20528;-38
2022/03/02 09:56:37;;;;;;;19.70;10.95;;;2.10;99.90;;;;;;4945262;28;20130;-35
2022/03/02 09:59:06;;;;;;;19.00;10.13;;;2.10;99.90;;;;;;4940477;28;20125;-38
2022/03/02 10:01:33;;;;;;;19.88;11.85;;;2.10;99.90;;;;;;4942573;28;20031;-37
2022/03/02 10:04:21;;;;;;;45.15;10.88;;;2.10;99.90;;;;;;4950691;28;20051;-37
2022/03/02 10:06:49;;;;;;;15.23;10.18;;;2.00;99.90;;;;;;4947517;28;20532;-38
2022/03/02 10:09:20;;;;;;;19.53;10.37;;;2.10;99.90;;;;;;4949106;28;20031;-37
2022/03/02 10:11:48;;;;;;;26.42;11.40;;;2.20;99.90;;;;;;4951486;28;20055;-35
2022/03/02 10:14:18;;;;;;;16.90;9.68;;;2.40;99.90;;;;;;4949205;28;20089;-38
2022/03/02 10:16:46;;;;;;;19.20;9.77;;;2.50;99.90;;;;;;4940721;28;20045;-36
2022/03/02 10:19:24;;;;;;;18.13;9.35;;;2.60;99.90;;;;;;4942715;28;20027;-36
2022/03/02 10:22:10;;;;;;;;;;;2.80;99.90;;;;;;4947299;28;20484;-32
2022/03/02 10:24:45;;;;;;;13.70;8.60;;;2.80;99.60;;;;;;4935118;28;20013;-32
2022/03/02 10:27:34;;;;;;;19.35;9.02;;;3.00;98.70;;;;;;4944219;28;20042;-31
2022/03/02 10:30:09;;;;;;;12.73;8.68;;;3.20;97.80;;;;;;4943676;28;20023;-31
2022/03/02 10:32:39;;;;;;;13.43;6.95;;;3.20;95.80;;;;;;4946467;28;20026;-31
2022/03/02 10:35:08;;;;;;;13.07;7.95;;;3.30;95.70;;;;;;4947137;28;20024;-31
2022/03/02 10:37:52;;;;;;;14.57;8.90;;;3.40;94.70;;;;;;4942289;28;21222;-31
2022/03/02 10:40:24;;;;;;;17.65;8.20;;;3.60;95.90;;;;;;4947034;28;20052;-31
2022/03/02 10:43:00;;;;;;;16.60;9.02;;;3.70;94.50;;;;;;4952393;28;20031;-32
2022/03/02 10:45:48;;;;;;;22.85;9.05;;;3.80;91.80;;;;;;4944136;28;20549;-32
2022/03/02 10:48:19;;;;;;;11.35;7.13;;;3.90;93.80;;;;;;4952227;28;20120;-31
2022/03/02 10:50:46;;;;;;;16.27;8.27;;;4.20;94.10;;;;;;4937326;28;20047;-31
2022/03/02 10:53:18;;;;;;;15.45;8.93;;;4.40;91.80;;;;;;4951228;28;20035;-31
2022/03/02 10:55:46;;;;;;;17.25;8.75;;;4.40;91.50;;;;;;4942861;28;20067;-31
2022/03/02 10:58:17;;;;;;;12.88;7.88;;;4.40;90.90;;;;;;4946671;28;20043;-31
2022/03/02 11:00:44;;;;;;;14.95;7.38;;;4.30;90.20;;;;;;4942440;28;20043;-31
2022/03/02 11:03:10;;;;;;;15.38;8.65;;;4.50;91.80;;;;;;4945208;28;20027;-31
2022/03/02 11:05:36;;;;;;;13.77;8.43;;;4.50;86.20;;;;;;4940188;28;20035;-31
2022/03/02 11:08:03;;;;;;;12.80;6.93;;;4.60;81.00;;;;;;4945350;28;20399;-31
2022/03/02 11:10:37;;;;;;;11.73;7.43;;;4.70;81.50;;;;;;4941439;28;20392;-31
2022/03/02 11:13:11;;;;;;;12.38;8.00;;;4.70;80.30;;;;;;4946858;28;20033;-31
2022/03/02 11:15:49;;;;;;;9.20;6.43;;;4.70;82.50;;;;;;4942941;28;20116;-31
2022/03/02 11:18:30;;;;;;;21.23;7.47;;;4.80;71.00;;;;;;4943579;28;20555;-31
2022/03/02 11:21:00;;;;;;;13.15;7.70;;;4.90;75.60;;;;;;4947421;28;20047;-31
2022/03/02 11:23:30;;;;;;;15.27;7.80;;;4.90;74.50;;;;;;4944064;28;20043;-30
2022/03/02 11:26:05;;;;;;;11.70;7.22;;;4.90;76.10;;;;;;4947372;28;20452;-31
2022/03/02 11:28:31;;;;;;;11.93;7.70;;;4.90;74.90;;;;;;4948957;28;20035;-31
2022/03/02 11:31:06;;;;;;;14.88;7.78;;;4.90;81.40;;;;;;4948828;28;20039;-31
2022/03/02 11:33:32;;;;;;;11.55;6.50;;;5.00;74.40;;;;;;4950259;28;20038;-31
2022/03/02 11:36:13;;;;;;;13.07;7.30;;;5.10;70.20;;;;;;4952410;28;20023;-31
2022/03/02 11:38:42;;;;;;;12.95;8.00;;;5.10;73.90;;;;;;4952044;28;20035;-31
2022/03/02 11:41:09;;;;;;;12.57;7.38;;;5.40;76.10;;;;;;4955136;28;20038;-31
2022/03/02 11:43:35;;;;;;;11.18;6.85;;;5.40;68.30;;;;;;4954080;28;20039;-31
2022/03/02 11:46:07;;;;;;;11.63;7.55;;;5.50;69.50;;;;;;4946089;28;20504;-31
2022/03/02 11:48:38;;;;;;;11.48;7.75;;;5.40;68.20;;;;;;4954377;28;20062;-31
2022/03/02 11:51:07;;;;;;;14.50;7.72;;;5.40;73.90;;;;;;4947491;28;20051;-31
2022/03/02 11:53:52;;;;;;;14.63;7.32;;;5.50;70.00;;;;;;4954179;28;20126;-31
2022/03/02 11:56:21;;;;;;;15.48;7.63;;;5.50;66.10;;;;;;4947128;28;20070;-31
2022/03/02 11:59:06;;;;;;;12.18;7.45;;;5.60;66.60;;;;;;4950708;28;20031;-31
2022/03/02 12:01:48;;;;;;;11.73;7.03;;;5.60;70.20;;;;;;4950725;28;20126;-31
2022/03/02 12:04:15;;;;;;;12.70;7.40;;;5.60;63.50;;;;;;4953190;28;20106;-31
2022/03/02 12:06:51;;;;;;;12.95;7.15;;;5.60;64.60;;;;;;4956948;28;20027;-31
2022/03/02 12:09:31;;;;;;;15.10;7.03;;;5.50;66.00;;;;;;4950825;28;20027;-31
2022/03/02 12:12:10;;;;;;;11.02;6.60;;;5.50;70.60;;;;;;4952628;28;20039;-32
2022/03/02 12:14:49;;;;;;;14.60;7.35;;;5.60;66.00;;;;;;4947572;28;20097;-31
2022/03/02 12:17:19;;;;;;;11.95;7.68;;;5.60;69.60;;;;;;4947577;28;20053;-32
2022/03/02 12:19:48;;;;;;;10.80;7.20;;;5.70;66.90;;;;;;4948273;28;20480;-32
2022/03/02 12:22:14;;;;;;;7.95;6.43;;;5.80;67.40;;;;;;4956113;28;20054;-31
2022/03/02 12:24:40;;;;;;;10.35;7.40;;;5.90;64.70;;;;;;4949332;28;20078;-31
2022/03/02 12:27:11;;;;;;;14.25;7.72;;;5.90;68.10;;;;;;4951823;28;20031;-31
2022/03/02 12:29:39;;;;;;;9.82;7.13;;;5.80;65.30;;;;;;4951027;28;20465;-31
2022/03/02 12:32:05;;;;;;;11.07;7.35;;;5.70;65.40;;;;;;4955042;28;20655;-31
2022/03/02 12:34:36;;;;;;;11.57;7.78;;;5.70;66.50;;;;;;4951655;28;20023;-32
2022/03/02 12:37:03;;;;;;;11.30;7.10;;;5.80;65.20;;;;;;4955004;28;20098;-31
2022/03/02 12:39:30;;;;;;;15.15;7.38;;;5.80;64.80;;;;;;4947876;28;20094;-31
2022/03/02 12:41:56;;;;;;;10.65;6.68;;;5.80;65.10;;;;;;4947926;28;20121;-31
2022/03/02 12:44:23;;;;;;;12.93;7.30;;;5.80;63.90;;;;;;4952845;28;20106;-32
2022/03/02 12:46:52;;;;;;;11.90;6.93;;;5.80;66.40;;;;;;4966556;28;20050;-31
2022/03/02 12:49:25;;;;;;;12.35;7.43;;;5.80;68.80;;;;;;4943320;28;20031;-31